Latest Weather Observations for Norfolk Island

IDN60801

Issued at 6:04 pm EST Friday 1 July 2016 (issued every 30 minutes, with the page automatically refreshed every 10 minutes)

About weather observations | Map of weather stations | Latest weather observations for NSW | Other Formats
Station Details ID: 200288 Name: NORFOLK ISLAND AERO Lat: -29.04 Lon: 167.94 Height: 111.73 m
Data from the previous 72 hours. | See also: Recent months at Norfolk Island
Date/Time
EST
Temp
°C
App
Temp
°C
Dew
Point
°C
Rel
Hum
%
Delta-T
°C
Wind Press
QNH
hPa
Press
MSL
hPa
Rain since
9am
mm
Dir  Spd
km/h
Gust
km/h
Spd
kts
Gust
kts
01/06:00pm 14.8 13.6 9.4 70 2.8 SE 6 9 3 5 1021.8 1021.7 0.0
01/05:30pm 15.1 13.7 8.8 66 3.2 SSE 6 9 3 5 1021.5 1021.4 0.0
01/05:00pm 15.2 13.7 8.3 63 3.5 SSE 6 9 3 5 1021.2 1021.1 0.0
01/04:30pm 15.2 14.2 9.0 66 3.2 SSE 4 9 2 5 1020.7 1020.6 0.0
01/04:00pm 15.3 13.4 9.1 66 3.2 SSE 9 13 5 7 1020.5 1020.4 0.0
01/03:30pm 16.0 14.0 8.8 62 3.7 SE 9 11 5 6 1020.4 1020.3 0.0
01/03:00pm 16.7 14.3 8.5 58 4.2 SSE 11 17 6 9 1020.4 1020.3 0.0
01/02:30pm 16.8 14.5 8.9 59 4.1 SSE 11 15 6 8 1020.0 1019.9 0.0
01/02:00pm 17.2 14.9 9.1 59 4.2 S 11 15 6 8 1020.0 1019.9 0.0
01/01:30pm 17.3 14.4 8.3 55 4.6 SE 13 17 7 9 1020.1 1020.0 0.0
01/01:00pm 17.9 14.6 7.9 52 5.1 S 15 20 8 11 1020.1 1020.0 0.0
01/12:30pm 17.8 14.6 8.3 53 4.9 S 15 24 8 13 1020.2 1020.1 0.0
01/12:00pm 17.5 13.9 8.3 54 4.7 SSE 17 24 9 13 1020.5 1020.4 0.0
01/11:30am 17.6 14.4 8.5 55 4.7 S 15 19 8 10 1020.7 1020.6 0.0
01/11:00am 18.4 15.9 8.1 51 5.3 S 11 19 6 10 1021.2 1021.1 0.0
01/10:30am 18.0 14.5 7.3 49 5.4 S 15 20 8 11 1021.4 1021.3 0.0
01/10:00am 17.9 14.7 6.9 48 5.5 S 13 19 7 10 1021.8 1021.7 0.0
01/09:30am 17.7 14.3 6.1 46 5.7 SSE 13 19 7 10 1022.1 1021.9 0.0
01/09:00am 17.7 14.7 6.1 46 5.7 SSE 11 17 6 9 1022.4 1022.2 0.0
01/08:30am 17.5 14.8 5.8 46 5.7 SSE 9 15 5 8 1022.5 1022.3 0.0
01/08:00am 17.1 13.5 5.0 44 5.8 SSE 13 17 7 9 1022.2 1022.0 0.4
01/07:30am 16.6 13.3 4.8 45 5.6 SE 11 15 6 8 1022.0 1021.8 0.4
01/07:00am 16.1 13.8 5.7 50 5.0 SE 7 11 4 6 1021.8 1021.6 0.4
01/06:30am 14.5 12.0 4.6 51 4.6 S 7 9 4 5 1021.6 1021.4 0.4
01/06:00am 13.6 10.2 4.2 53 4.3 S 11 13 6 7 1021.3 1021.1 0.4
01/05:30am 14.0 10.4 2.8 47 5.0 SSE 11 17 6 9 1021.0 1020.8 0.4
01/05:00am 13.5 10.2 4.4 54 4.2 SSE 11 15 6 8 1020.6 1020.4 0.4
01/04:30am 13.8 9.6 3.7 50 4.6 SSE 15 20 8 11 1020.1 1019.9 0.4
01/04:00am 13.9 9.5 2.9 47 4.9 SE 15 20 8 11 1019.8 1019.6 0.4
01/03:30am 13.4 9.7 4.2 53 4.2 SSE 13 19 7 10 1019.8 1019.6 0.4
01/03:00am 13.9 9.8 4.1 51 4.5 SSE 15 20 8 11 1019.6 1019.4 0.4
01/02:30am 14.1 10.0 4.4 52 4.5 SSE 15 19 8 10 1019.7 1019.5 0.4
01/02:00am 14.4 11.0 5.8 56 4.1 SE 13 17 7 9 1019.9 1019.7 0.4
01/01:30am 14.0 10.4 5.0 54 4.2 SSE 13 20 7 11 1019.9 1019.7 0.4
01/01:00am 14.2 10.4 5.6 56 4.1 SSE 15 24 8 13 1020.0 1019.8 0.4
01/12:30am 14.7 11.2 5.4 53 4.4 SSE 13 19 7 10 1020.0 1019.8 0.4
01/12:00am 14.7 10.3 4.9 52 4.6 SSE 17 24 9 13 1019.9 1019.7 0.4
 
Date/Time
EST
Temp
°C
App
Temp
°C
Dew
Point
°C
Rel
Hum
%
Delta-T
°C
Wind Press
QNH
hPa
Press
MSL
hPa
Rain since
9am
mm
Dir  Spd
km/h
Gust
km/h
Spd
kts
Gust
kts
30/11:30pm 14.6 10.4 5.8 55 4.2 SSE 17 24 9 13 1019.8 1019.6 0.4
30/11:00pm 15.0 10.4 5.8 54 4.4 SSE 19 30 10 16 1019.7 1019.5 0.4
30/10:30pm 14.9 10.4 6.0 55 4.3 SSE 19 28 10 15 1019.7 1019.5 0.4
30/10:00pm 15.4 10.9 6.1 54 4.5 SSE 19 30 10 16 1019.6 1019.4 0.4
30/09:30pm 15.2 11.0 5.6 52 4.6 S 17 24 9 13 1019.8 1019.6 0.4
30/09:00pm 15.3 11.2 6.2 54 4.4 S 17 24 9 13 1019.9 1019.7 0.4
30/08:30pm 15.3 11.9 7.7 60 3.8 SSE 15 24 8 13 1020.1 1019.9 0.4
30/08:00pm 15.0 12.2 8.5 65 3.3 SSE 13 19 7 10 1020.0 1019.8 0.4
30/07:30pm 15.1 11.2 9.5 69 2.9 SSE 20 32 11 17 1019.7 1019.5 0.4
30/07:00pm 15.0 11.3 8.0 63 3.5 SSE 17 26 9 14 1019.4 1019.2 0.4
30/06:30pm 15.7 12.1 8.4 62 3.7 S 17 33 9 18 1019.0 1018.8 0.4
30/06:00pm 16.0 11.7 7.1 55 4.4 S 19 26 10 14 1018.9 1018.7 0.4
30/05:30pm 16.1 11.9 7.5 56 4.3 S 19 30 10 16 1018.7 1018.5 0.4
30/05:00pm 16.1 11.2 7.0 54 4.5 S 22 33 12 18 1018.4 1018.2 0.4
30/04:30pm 15.8 11.1 6.1 52 4.7 S 20 30 11 16 1018.1 1017.9 0.4
30/04:00pm 16.0 10.3 5.1 48 5.2 S 24 33 13 18 1017.7 1017.5 0.4
30/03:30pm 16.4 12.0 7.2 54 4.6 S 20 33 11 18 1017.6 1017.4 0.4
30/03:00pm 16.6 12.0 6.7 52 4.9 S 20 28 11 15 1017.4 1017.2 0.4
30/02:30pm 17.0 12.2 7.2 52 4.9 S 22 33 12 18 1017.1 1016.9 0.4
30/02:00pm 16.8 13.4 9.1 60 4.0 S 17 28 9 15 1017.1 1016.9 0.4
30/01:30pm 16.9 11.7 10.1 64 3.6 S 28 37 15 20 1017.0 1016.8 0.4
30/01:00pm 16.1 11.6 11.3 73 2.6 S 26 43 14 23 1017.1 1016.9 0.4
30/12:30pm 17.4 12.7 9.2 58 4.3 S 24 35 13 19 1017.0 1016.8 0.4
30/12:00pm 17.4 13.2 9.6 60 4.1 S 22 37 12 20 1017.1 1016.9 0.4
30/11:30am 17.7 12.8 9.8 60 4.2 S 26 35 14 19 1017.3 1017.1 0.4
30/11:00am 17.2 13.5 10.0 62 3.8 S 20 32 11 17 1017.5 1017.3 0.4
30/10:30am 17.1 13.7 11.4 69 3.1 SSE 20 30 11 16 1017.7 1017.5 0.4
30/10:00am 16.2 13.0 11.8 75 2.4 SSW 20 28 11 15 1018.0 1017.8 0.4
30/09:30am 17.7 13.1 9.5 58 4.3 S 24 33 13 18 1018.1 1017.9 0.0
30/09:00am 17.4 13.2 8.2 54 4.7 S 20 28 11 15 1018.0 1017.8 0.0
30/08:30am 16.8 13.0 9.8 63 3.7 SSE 20 30 11 16 1018.0 1017.8 0.0
30/08:00am 16.7 12.6 10.1 65 3.5 S 22 32 12 17 1017.8 1017.6 4.2
30/07:30am 17.0 12.9 8.7 58 4.3 S 20 30 11 16 1017.5 1017.3 4.2
30/07:00am 16.3 11.5 7.5 56 4.4 SSE 22 32 12 17 1017.3 1017.1 4.2
30/06:30am 15.7 10.6 7.5 58 4.1 SSE 24 35 13 19 1017.0 1016.8 4.2
30/06:00am 15.4 10.9 10.1 70 2.8 SSE 24 41 13 22 1016.7 1016.5 4.2
30/05:30am 14.6 11.6 10.8 78 2.0 SSE 17 28 9 15 1016.4 1016.2 4.2
30/05:01am 13.9 9.8 11.3 84 1.4 SSE 24 41 13 22 1016.1 1015.9 4.2
30/05:00am 13.9 9.4 11.3 84 1.4 SSE 26 43 14 23 1016.1 1015.9 4.2
30/04:39am 14.4 10.9 12.2 87 1.2 S 22 41 12 22 1015.9 1015.7 2.6
30/04:30am 15.5 13.2 11.6 77 2.1 SSE 15 20 8 11 1015.5 1015.3 1.6
30/04:00am 14.7 11.5 11.1 79 1.9 SSE 19 28 10 15 1015.3 1015.0 1.6
30/03:30am 14.9 9.4 12.0 83 1.6 S 32 52 17 28 1015.0 1014.7 1.6
30/03:27am 15.0 10.3 11.9 82 1.7 S 28 50 15 27 1014.9 1014.6 1.6
30/03:00am 15.4 11.0 11.7 78 2.0 S 26 35 14 19 1014.8 1014.5 1.6
30/02:30am 14.9 11.2 11.6 80 1.8 S 22 32 12 17 1014.8 1014.5 1.6
30/02:12am 14.5 9.8 11.9 84 1.4 SSW 28 41 15 22 1014.9 1014.6 1.6
30/02:00am 14.6 12.7 11.8 83 1.5 SSW 13 20 7 11 1014.7 1014.4 1.2
30/01:30am 15.3 11.8 12.2 82 1.7 S 22 37 12 20 1014.7 1014.4 1.0
30/01:00am 15.5 12.1 11.2 75 2.3 SSW 20 32 11 17 1014.6 1014.3 1.0
30/12:36am 14.8 11.6 11.3 79 1.9 SSW 19 28 10 15 1014.6 1014.3 1.0
30/12:30am 15.0 11.3 11.5 79 1.9 S 22 33 12 18 1014.7 1014.4 1.0
30/12:21am 14.5 9.7 11.5 82 1.6 S 28 44 15 24 1014.8 1014.5 0.8
30/12:00am 16.5 12.9 10.7 68 3.1 S 20 32 11 17 1014.5 1014.2 0.2
 
Date/Time
EST
Temp
°C
App
Temp
°C
Dew
Point
°C
Rel
Hum
%
Delta-T
°C
Wind Press
QNH
hPa
Press
MSL
hPa
Rain since
9am
mm
Dir  Spd
km/h
Gust
km/h
Spd
kts
Gust
kts
29/11:30pm 16.4 12.1 10.8 69 3.0 S 24 37 13 20 1014.5 1014.2 0.2
29/11:00pm 16.5 12.3 9.9 65 3.5 SSW 22 32 12 17 1014.7 1014.4 0.2
29/10:30pm 16.6 12.8 11.0 69 3.0 SSW 22 39 12 21 1014.4 1014.1 0.2
29/10:00pm 16.6 13.0 11.7 73 2.7 SSW 22 33 12 18 1014.3 1014.0 0.2
29/09:30pm 16.6 13.1 10.8 68 3.1 SSW 20 39 11 21 1014.3 1014.0 0.2
29/09:00pm 17.1 13.1 10.6 65 3.5 SSW 22 33 12 18 1014.3 1014.0 0.2
29/08:30pm 17.1 13.3 11.0 67 3.3 SSW 22 32 12 17 1014.2 1013.9 0.2
29/08:00pm 17.2 12.8 10.5 64 3.6 SSW 24 39 13 21 1014.0 1013.7 0.2
29/07:30pm 16.8 13.1 11.5 71 2.9 SSW 22 32 12 17 1013.8 1013.5 0.2
29/07:00pm 17.0 12.7 10.7 66 3.4 SW 24 39 13 21 1013.7 1013.4 0.2
29/06:30pm 17.1 13.5 10.6 65 3.5 SW 20 33 11 18 1013.5 1013.3 0.2
29/06:00pm 17.0 12.7 10.9 67 3.3 SSW 24 35 13 19 1013.1 1012.9 0.2
29/05:30pm 17.1 12.8 10.6 65 3.5 SW 24 33 13 18 1012.8 1012.6 0.2
29/05:00pm 17.1 12.9 11.2 68 3.2 SW 24 32 13 17 1012.4 1012.2 0.2
29/04:30pm 17.0 13.8 11.9 72 2.8 SW 20 28 11 15 1012.2 1012.0 0.2
29/04:00pm 17.3 13.2 11.6 69 3.1 SW 24 33 13 18 1011.9 1011.7 0.2
29/03:30pm 17.9 13.9 11.7 67 3.4 SW 24 33 13 18 1011.5 1011.3 0.2
29/03:00pm 18.2 15.8 12.5 69 3.2 SW 17 26 9 14 1011.3 1011.1 0.2
29/02:30pm 18.9 16.6 13.1 69 3.3 SW 17 26 9 14 1011.2 1011.0 0.2
29/02:00pm 18.7 16.1 13.3 71 3.1 SW 19 30 10 16 1011.0 1010.8 0.2
29/01:30pm 18.8 15.2 12.0 64 3.8 SW 22 30 12 16 1010.9 1010.7 0.2
29/01:00pm 19.3 16.4 12.8 66 3.7 SW 20 30 11 16 1010.9 1010.7 0.2
29/12:30pm 19.0 15.4 13.2 69 3.3 SW 24 32 13 17 1010.9 1010.7 0.2
29/12:00pm 18.9 16.4 13.5 71 3.1 SW 19 28 10 15 1011.2 1011.0 0.2
29/11:30am 19.0 15.9 14.5 75 2.6 SW 24 33 13 18 1011.6 1011.4 0.2
29/11:00am 18.8 15.8 12.4 66 3.6 WSW 20 30 11 16 1011.8 1011.6 0.2
29/10:30am 19.3 15.6 12.8 66 3.7 W 24 35 13 19 1012.1 1011.9 0.2
29/10:00am 20.1 15.4 11.9 59 4.6 W 28 35 15 19 1012.4 1012.2 0.2
29/09:30am 20.1 15.7 11.7 58 4.7 W 26 33 14 18 1012.6 1012.4 0.2
29/09:00am 19.5 14.9 11.1 58 4.6 W 26 35 14 19 1012.9 1012.7 0.0
29/08:30am 19.2 14.7 9.9 55 5.0 W 24 32 13 17 1013.0 1012.8 0.0
29/08:00am 18.3 13.1 11.6 65 3.7 W 30 43 16 23 1013.1 1012.9 10.2
29/07:30am 18.7 14.9 9.9 56 4.7 W 20 30 11 16 1012.9 1012.7 10.2
29/07:00am 18.4 13.8 9.5 56 4.7 W 24 32 13 17 1012.9 1012.7 10.2
29/06:30am 18.0 13.5 8.6 54 4.9 WSW 22 32 12 17 1012.8 1012.6 10.2
29/06:00am 17.7 13.1 8.2 53 4.9 WSW 22 33 12 18 1012.5 1012.3 10.2
29/05:30am 17.9 11.9 7.2 49 5.4 W 28 37 15 20 1012.4 1012.2 10.2
29/05:00am 17.7 12.6 9.1 57 4.5 W 26 35 14 19 1012.1 1011.9 10.2
29/04:30am 17.9 13.9 11.9 68 3.3 WSW 24 35 13 19 1011.9 1011.7 10.2
29/04:00am 17.8 13.4 11.8 68 3.3 WSW 26 35 14 19 1011.6 1011.4 10.2
29/03:30am 17.2 14.4 13.1 77 2.3 SW 20 32 11 17 1011.5 1011.3 10.2
29/03:00am 17.6 14.7 13.0 74 2.6 WSW 20 30 11 16 1011.3 1011.1 10.2
29/02:30am 17.8 14.4 12.4 70 3.0 WSW 22 33 12 18 1011.4 1011.2 10.2
29/02:00am 17.7 14.8 12.9 73 2.7 WSW 20 32 11 17 1011.3 1011.1 10.2
29/01:30am 17.9 14.4 13.3 74 2.6 WSW 24 33 13 18 1011.5 1011.3 10.2
29/01:00am 17.7 14.9 14.2 80 2.0 WSW 22 33 12 18 1011.7 1011.5 10.2
29/12:30am 18.5 14.0 13.8 74 2.7 W 30 44 16 24 1011.8 1011.6 10.2
29/12:00am 18.5 14.8 13.8 74 2.7 W 26 37 14 20 1011.8 1011.6 10.2
 
Date/Time
EST
Temp
°C
App
Temp
°C
Dew
Point
°C
Rel
Hum
%
Delta-T
°C
Wind Press
QNH
hPa
Press
MSL
hPa
Rain since
9am
mm
Dir  Spd
km/h
Gust
km/h
Spd
kts
Gust
kts
28/11:30pm 18.3 15.0 14.1 76 2.4 W 24 33 13 18 1012.1 1011.9 10.2
28/11:00pm 18.4 15.8 15.0 80 2.0 W 22 33 12 18 1012.1 1011.9 10.2
28/10:46pm 18.3 16.4 15.1 81 1.9 W 19 30 10 16 1012.2 1012.0 10.2
28/10:30pm 18.4 16.6 15.9 85 1.5 W 20 32 11 17 1012.2 1012.0 10.2
28/10:00pm 18.3 16.2 16.1 87 1.3 W 22 33 12 18 1012.4 1012.2 10.2
28/09:30pm 18.3 16.5 16.0 86 1.4 W 20 32 11 17 1012.4 1012.2 10.2
28/09:00pm 18.0 16.0 16.5 91 0.9 W 22 33 12 18 1012.4 1012.2 10.2
28/08:30pm 18.1 16.8 16.9 93 0.7 WNW 19 30 10 16 1012.7 1012.5 10.2
28/08:00pm 17.9 17.1 17.1 95 0.5 WNW 17 30 9 16 1012.5 1012.3 10.2
28/07:30pm 17.7 16.7 16.7 94 0.6 WNW 17 35 9 19 1012.6 1012.4 10.2
28/07:24pm 17.6 16.6 16.6 94 0.6 WNW 17 33 9 18 1012.6 1012.4 10.2
28/07:00pm 17.3 16.6 16.3 94 0.6 NW 15 32 8 17 1012.7 1012.5 9.8
28/06:41pm 17.5 16.9 16.7 95 0.5 WNW 15 24 8 13 1012.8 1012.6 9.4
28/06:30pm 17.5 17.0 16.8 96 0.4 NW 15 22 8 12 1012.7 1012.5 9.2
28/06:11pm 17.5 16.5 16.7 95 0.5 WNW 17 28 9 15 1013.0 1012.8 8.2
28/06:10pm 17.6 16.7 16.8 95 0.5 WNW 17 28 9 15 1013.1 1012.9 8.0
28/06:01pm 17.6 16.7 16.9 96 0.4 WNW 17 28 9 15 1012.9 1012.7 7.4
28/06:00pm 17.6 16.7 16.8 95 0.5 WNW 17 28 9 15 1012.9 1012.7 7.4
28/05:37pm 17.6 16.7 16.9 96 0.4 W 17 28 9 15 1012.9 1012.7 5.4
28/05:32pm 17.7 16.8 16.9 95 0.5 W 17 28 9 15 1012.8 1012.6 5.2
28/05:30pm 17.6 16.3 16.9 96 0.4 W 19 28 10 15 1012.8 1012.6 5.2
28/05:00pm 17.4 15.1 16.6 95 0.5 W 24 33 13 18 1012.8 1012.6 3.8
28/04:51pm 17.6 15.3 16.6 94 0.6 W 24 33 13 18 1012.8 1012.6 2.4
28/04:40pm 18.1 17.2 16.9 93 0.7 WNW 17 30 9 16 1012.6 1012.4 2.0

Other Formats:

Comma delimited format used in spreadsheet applications
http://www.bom.gov.au/fwo/IDN60801/IDN60801.94996.axf

JavaScript Object Notation format (JSON) in row-major order
http://www.bom.gov.au/fwo/IDN60801/IDN60801.94996.json